Terminal Aerodrome Forecast
Issued by NWS Sterling, VA

Current Version | Previous Version | Graphics & Text | Print | Product List | Glossary On
Versions: 1 2 3 4 5 6 7 8 9 10 11 12 13 14 15 16 17 18 19
000
FTUS41 KLWX 012337
TAFMRB
TAF
KMRB 012337Z 0200/0224 08006KT P6SM VCSH BKN050
     FM020200 VRB03KT P6SM BKN080
     FM020800 33006KT P6SM SCT080=

USA.gov is the U.S. government's official web portal to all federal, state and local government web resources and services.